createdAt,value
2022-10-08T00:35:28.001Z,98034.28
2022-10-08T00:39:31.566Z,98024.63
2022-10-08T00:43:43.062Z,98020.84
2022-10-08T00:47:48.313Z,98033.78
2022-10-08T00:51:55.971Z,98032.63
2022-10-08T00:55:59.483Z,98022.63
2022-10-08T01:00:04.879Z,98021.63
2022-10-08T01:04:09.518Z,98025.88
2022-10-08T01:08:21.348Z,98023.91
2022-10-08T01:12:38.546Z,98025.38
2022-10-08T01:16:52.477Z,98025.22
2022-10-08T01:21:05.429Z,98012.13
2022-10-08T01:25:35.266Z,98021.25
2022-10-08T01:29:44.841Z,98011.13
2022-10-08T01:33:55.331Z,98009.50
2022-10-08T01:38:06.360Z,97993.84
2022-10-08T01:42:12.176Z,98004.59
2022-10-08T01:46:21.813Z,97997.75
2022-10-08T01:50:29.103Z,98000.69
2022-10-08T01:54:35.355Z,98008.66
2022-10-08T01:58:47.983Z,98005.88
2022-10-08T02:02:55.227Z,98008.66
2022-10-08T02:07:01.005Z,97999.19
2022-10-08T02:11:04.670Z,97998.53
2022-10-08T02:15:09.993Z,97993.50
2022-10-08T02:19:26.630Z,97994.28
2022-10-08T02:23:33.718Z,97988.75
2022-10-08T02:27:50.010Z,97996.28
2022-10-08T02:31:58.511Z,97988.09
2022-10-08T02:36:08.265Z,97996.13
2022-10-08T02:40:14.605Z,97993.66
2022-10-08T02:44:23.113Z,97999.34
2022-10-08T02:48:31.833Z,97997.56
2022-10-08T02:52:41.542Z,98001.81
2022-10-08T02:56:49.853Z,97999.34
2022-10-08T03:00:55.898Z,98009.66
2022-10-08T03:05:04.177Z,98005.09
2022-10-08T03:09:13.932Z,98008.34
2022-10-08T03:13:18.952Z,98008.34
2022-10-08T03:17:26.976Z,98011.59
2022-10-08T03:21:30.233Z,98011.59
2022-10-08T03:25:35.061Z,98013.22
2022-10-08T03:29:38.545Z,98011.59
2022-10-08T03:33:42.009Z,98011.25
2022-10-08T03:37:44.976Z,98021.75
2022-10-08T03:41:49.856Z,98021.75
2022-10-08T03:45:54.333Z,98021.75
2022-10-08T03:49:57.800Z,98023.69
2022-10-08T03:54:01.232Z,98025.69
2022-10-08T03:58:05.685Z,98029.09
2022-10-08T04:02:08.832Z,98021.94
2022-10-08T04:06:13.342Z,98025.03
2022-10-08T04:10:17.153Z,98031.91
2022-10-08T04:14:21.868Z,98037.78
2022-10-08T04:18:24.789Z,98033.56
2022-10-08T04:22:27.798Z,98026.38
2022-10-08T04:26:31.355Z,98032.72
2022-10-08T04:30:36.141Z,98033.56
2022-10-08T04:34:39.228Z,98036.16
2022-10-08T04:38:44.170Z,98041.41
2022-10-08T04:42:52.525Z,98024.03
2022-10-08T04:46:57.293Z,98026.38
2022-10-08T04:51:04.880Z,98028.34
2022-10-08T04:55:11.403Z,98022.28
2022-10-08T04:59:14.411Z,98023.09
2022-10-08T05:03:19.456Z,98025.09
2022-10-08T05:07:22.925Z,98031.28
2022-10-08T05:11:27.844Z,98029.50
2022-10-08T05:15:31.775Z,98039.31
2022-10-08T05:19:36.874Z,98041.94
2022-10-08T05:23:41.220Z,98045.53
2022-10-08T05:27:44.821Z,98053.22
2022-10-08T05:31:47.936Z,98045.38
2022-10-08T05:35:52.365Z,98043.03
2022-10-08T05:39:55.802Z,98045.03
2022-10-08T05:44:02.022Z,98045.22
2022-10-08T05:48:05.791Z,98055.69
2022-10-08T05:52:10.279Z,98060.91
2022-10-08T05:56:15.159Z,98065.97
2022-10-08T06:00:18.259Z,98066.09
2022-10-08T06:04:21.935Z,98067.94
2022-10-08T06:08:26.543Z,98072.66
2022-10-08T06:12:30.025Z,98070.38
2022-10-08T06:16:33.035Z,98075.63
2022-10-08T06:20:38.189Z,98077.69
2022-10-08T06:24:42.956Z,98077.03
2022-10-08T06:28:46.728Z,98081.59
2022-10-08T06:32:50.519Z,98097.16
2022-10-08T06:36:55.172Z,98086.34
2022-10-08T06:41:00.311Z,98090.41
2022-10-08T06:45:03.729Z,98091.38
2022-10-08T06:49:07.251Z,98101.16
2022-10-08T06:53:12.484Z,98099.78
2022-10-08T06:57:17.542Z,98112.84
2022-10-08T07:01:22.942Z,98109.16
2022-10-08T07:05:26.251Z,98113.63
2022-10-08T07:09:29.297Z,98114.50
2022-10-08T07:13:34.621Z,98108.50
2022-10-08T07:17:38.691Z,98103.47
2022-10-08T07:21:41.683Z,98111.91
2022-10-08T07:25:45.007Z,98117.72
2022-10-08T07:29:49.936Z,98115.50
2022-10-08T07:33:54.175Z,98121.13
2022-10-08T07:42:06.996Z,98119.06
2022-10-08T07:46:13.210Z,98126.31
2022-10-08T07:50:17.058Z,98124.41
2022-10-08T07:54:21.134Z,98123.31
2022-10-08T07:58:24.607Z,98115.09
2022-10-08T08:02:29.096Z,98123.78
2022-10-08T08:06:34.825Z,98111.66
2022-10-08T08:10:37.849Z,98101.75
2022-10-08T08:14:41.346Z,98125.06
2022-10-08T08:18:47.784Z,98142.63
2022-10-08T08:22:50.832Z,98146.06
2022-10-08T08:26:57.585Z,98126.72
2022-10-08T08:31:09.147Z,98128.81
2022-10-08T08:35:13.878Z,98129.19
2022-10-08T08:39:18.871Z,98130.19
2022-10-08T08:43:22.696Z,98134.44
2022-10-08T08:47:30.987Z,98135.41
2022-10-08T08:51:36.312Z,98130.06
2022-10-08T08:55:42.690Z,98125.53
2022-10-08T08:59:48.297Z,98134.13
2022-10-08T09:03:54.067Z,98137.22
2022-10-08T09:08:05.465Z,98149.63
2022-10-08T09:12:20.834Z,98149.22
2022-10-08T09:16:25.439Z,98146.59
2022-10-08T09:20:29.240Z,98146.00
2022-10-08T09:24:35.733Z,98145.00
2022-10-08T09:28:41.395Z,98148.50
2022-10-08T09:32:45.177Z,98146.69
2022-10-08T09:36:51.782Z,98139.19
2022-10-08T09:41:05.218Z,98139.41
2022-10-08T09:45:32.818Z,98136.81
2022-10-08T09:49:38.892Z,98131.56
2022-10-08T09:53:45.468Z,98136.06
2022-10-08T09:57:54.583Z,98129.97
2022-10-08T10:02:00.670Z,98138.91
2022-10-08T10:06:04.438Z,98136.88
2022-10-08T10:10:17.970Z,98119.19
2022-10-08T10:14:29.702Z,98115.16
2022-10-08T10:18:36.970Z,98109.69
2022-10-08T10:22:51.279Z,98119.19
2022-10-08T10:26:58.130Z,98119.19
2022-10-08T10:31:07.283Z,98119.91
2022-10-08T10:35:17.114Z,98109.44
2022-10-08T10:39:32.204Z,98101.31
2022-10-08T10:43:44.143Z,98093.34
2022-10-08T10:47:51.081Z,98098.69
2022-10-08T10:52:05.120Z,98085.91
2022-10-08T10:56:15.447Z,98085.03
2022-10-08T11:00:23.530Z,98076.47
2022-10-08T11:04:44.847Z,98072.78
2022-10-08T11:08:54.463Z,98073.09
2022-10-08T11:13:07.017Z,98074.59
2022-10-08T11:17:27.594Z,98071.53
2022-10-08T11:21:46.342Z,98065.91
2022-10-08T11:26:19.081Z,98051.78
2022-10-08T11:30:38.645Z,98057.28
2022-10-08T11:34:49.635Z,98046.81
2022-10-08T11:39:03.150Z,98044.56
2022-10-08T11:43:10.807Z,98044.69
2022-10-08T11:47:37.682Z,98036.19
2022-10-08T11:51:42.018Z,98038.72
2022-10-08T11:55:54.199Z,98030.16
2022-10-08T12:00:06.912Z,98033.63
2022-10-08T12:04:21.458Z,98020.34
2022-10-08T12:08:51.889Z,98023.00
2022-10-08T12:13:26.140Z,98014.06
2022-10-08T12:17:53.586Z,98015.66
2022-10-08T12:21:56.950Z,98005.47
2022-10-08T12:26:14.181Z,98008.84
2022-10-08T12:30:19.322Z,97997.81
2022-10-08T12:34:24.007Z,97995.25
2022-10-08T12:38:37.565Z,97996.44
2022-10-08T12:42:42.354Z,97984.34
2022-10-08T12:46:57.955Z,97989.44
2022-10-08T12:51:14.883Z,97990.28
2022-10-08T12:55:21.970Z,97986.53
2022-10-08T12:59:27.939Z,97984.34
2022-10-08T13:03:32.394Z,97985.41
2022-10-08T13:07:37.088Z,97981.94
2022-10-08T13:11:40.593Z,97979.97
2022-10-08T13:15:44.042Z,97984.16
2022-10-08T13:19:49.067Z,97983.56
2022-10-08T13:23:52.654Z,97983.97
2022-10-08T13:28:10.438Z,97973.97
2022-10-08T13:32:21.845Z,97984.16
2022-10-08T13:58:27.572Z,97986.69
2022-10-08T14:02:33.931Z,97983.56
2022-10-08T14:06:38.470Z,97985.75
2022-10-08T14:10:43.479Z,97980.78
2022-10-08T14:14:46.977Z,97982.53
2022-10-08T14:18:51.869Z,97982.16
2022-10-08T14:22:55.521Z,97963.22
2022-10-08T14:26:58.508Z,97969.56
2022-10-08T14:31:01.532Z,97964.13
2022-10-08T14:35:08.549Z,97966.09
2022-10-08T14:39:11.658Z,97959.31
2022-10-08T14:43:15.155Z,97957.81
2022-10-08T14:47:18.613Z,97957.66
2022-10-08T14:51:23.001Z,97955.13
2022-10-08T14:55:26.520Z,97949.56
2022-10-08T14:59:30.034Z,97941.06
2022-10-08T15:03:34.286Z,97941.50
2022-10-08T15:07:38.986Z,97944.63
2022-10-08T15:11:42.640Z,97947.75
2022-10-08T15:15:46.635Z,97956.09
2022-10-08T15:19:50.112Z,97959.53
2022-10-08T15:23:56.725Z,97960.66
2022-10-08T15:28:00.196Z,97954.69
2022-10-08T15:32:03.704Z,97960.69
2022-10-08T15:36:17.714Z,97953.41
2022-10-08T15:40:22.224Z,97960.19
2022-10-08T15:44:29.601Z,97965.38
2022-10-08T15:48:33.020Z,97970.94
2022-10-08T15:52:36.394Z,97982.63
2022-10-08T15:56:41.154Z,97978.81
2022-10-08T16:00:44.889Z,97983.53
2022-10-08T16:04:48.925Z,97983.97
2022-10-08T16:08:52.349Z,97985.81
2022-10-08T16:12:56.726Z,97996.59
2022-10-08T16:17:00.467Z,97996.22
2022-10-08T16:21:05.150Z,98003.75
2022-10-08T16:25:09.118Z,98008.03
2022-10-08T16:29:15.327Z,98017.00
2022-10-08T16:33:19.762Z,98014.38
2022-10-08T16:37:23.000Z,98019.66
2022-10-08T16:41:27.380Z,98016.75
2022-10-08T16:45:36.243Z,98021.81
2022-10-08T16:49:40.337Z,98025.91
2022-10-08T16:53:48.360Z,98034.81
2022-10-08T16:57:51.808Z,98046.53
2022-10-08T17:06:24.580Z,98041.22
2022-10-08T17:10:31.159Z,98045.28
2022-10-08T17:14:34.580Z,98047.53
2022-10-08T17:18:39.730Z,98052.16
2022-10-08T17:22:42.782Z,98060.66
2022-10-08T17:26:45.838Z,98061.06
2022-10-08T17:30:49.108Z,98066.72
2022-10-08T17:34:54.379Z,98077.69
2022-10-08T17:38:59.176Z,98092.88
2022-10-08T17:43:02.702Z,98093.06
2022-10-08T17:47:06.488Z,98096.88
2022-10-08T17:51:13.120Z,98096.25
2022-10-08T17:55:17.146Z,98103.94
2022-10-08T17:59:23.085Z,98113.22
2022-10-08T18:03:26.649Z,98112.00
2022-10-08T18:07:32.838Z,98122.91
2022-10-08T18:11:39.199Z,98126.97
2022-10-08T18:15:43.131Z,98118.84
2022-10-08T18:19:46.594Z,98128.09
2022-10-08T18:23:51.730Z,98130.53
2022-10-08T18:27:57.226Z,98140.19
2022-10-08T18:32:00.748Z,98145.59
2022-10-08T18:36:12.231Z,98147.34
2022-10-08T18:40:17.336Z,98168.38
2022-10-08T18:44:22.288Z,98169.97
2022-10-08T18:48:25.736Z,98171.97
2022-10-08T18:52:29.176Z,98181.06
2022-10-08T18:56:39.114Z,98188.13
2022-10-08T19:00:44.048Z,98194.41
2022-10-08T19:04:47.039Z,98209.19
2022-10-08T19:08:51.334Z,98213.03
2022-10-08T19:12:55.906Z,98223.75
2022-10-08T19:17:00.759Z,98222.13
2022-10-08T19:21:09.179Z,98238.28
2022-10-08T19:25:12.670Z,98251.81
2022-10-08T19:29:19.499Z,98258.44
2022-10-08T19:33:23.167Z,98258.34
2022-10-08T19:37:26.840Z,98260.56
2022-10-08T19:41:31.391Z,98271.44
2022-10-08T19:45:36.833Z,98278.09
2022-10-08T19:49:40.343Z,98281.25
2022-10-08T19:53:43.681Z,98280.19
2022-10-08T19:57:47.014Z,98288.44
2022-10-08T20:01:51.968Z,98291.16
2022-10-08T20:05:54.991Z,98307.78
2022-10-08T20:09:59.017Z,98311.13
2022-10-08T20:14:02.873Z,98326.53
2022-10-08T20:18:08.499Z,98329.34
2022-10-08T20:22:12.159Z,98328.72
2022-10-08T20:26:17.847Z,98332.72
2022-10-08T20:30:21.556Z,98326.81
2022-10-08T20:34:31.763Z,98326.19
2022-10-08T20:38:35.795Z,98346.75
2022-10-08T20:42:40.634Z,98351.22
2022-10-08T20:46:46.594Z,98354.19
2022-10-08T20:50:55.238Z,98336.16
2022-10-08T20:55:01.278Z,98354.72
2022-10-08T20:59:06.273Z,98350.66
2022-10-08T21:03:10.468Z,98350.19
2022-10-08T21:07:15.028Z,98349.28
2022-10-08T21:11:20.353Z,98355.81
2022-10-08T21:15:23.849Z,98348.25
2022-10-08T21:19:27.161Z,98350.72
2022-10-08T21:23:32.061Z,98360.25
2022-10-08T21:27:35.249Z,98362.25
2022-10-08T21:31:40.402Z,98365.03
2022-10-08T21:35:44.100Z,98365.22
2022-10-08T21:39:49.290Z,98376.75
2022-10-08T21:43:54.672Z,98379.91
2022-10-08T21:47:57.805Z,98375.16
2022-10-08T21:52:02.202Z,98396.84
2022-10-08T21:56:09.845Z,98384.34
2022-10-08T22:00:14.674Z,98403.75
2022-10-08T22:04:19.865Z,98394.22
2022-10-08T22:08:24.531Z,98388.31
2022-10-08T22:12:31.280Z,98398.03
2022-10-08T22:16:34.843Z,98402.78
2022-10-08T22:20:38.418Z,98400.31
2022-10-08T22:24:41.480Z,98408.38
2022-10-08T22:28:46.934Z,98399.06
2022-10-08T22:32:50.937Z,98402.69
2022-10-08T22:36:54.586Z,98402.84
2022-10-08T22:41:03.156Z,98401.19
2022-10-08T22:45:10.338Z,98409.44
2022-10-08T22:49:13.493Z,98406.19
2022-10-08T22:53:17.648Z,98410.16
2022-10-08T22:57:21.204Z,98423.47
2022-10-08T23:01:27.791Z,98426.28
2022-10-08T23:05:30.964Z,98422.81
2022-10-08T23:09:34.081Z,98414.28
2022-10-08T23:13:37.772Z,98410.84
2022-10-08T23:17:42.459Z,98422.16
2022-10-08T23:21:45.975Z,98425.97
2022-10-08T23:26:00.393Z,98425.34
2022-10-08T23:30:04.464Z,98436.19
2022-10-08T23:34:10.166Z,98448.66
2022-10-08T23:38:14.795Z,98448.84
2022-10-08T23:42:18.376Z,98437.38
2022-10-08T23:46:24.030Z,98442.31
2022-10-08T23:50:28.965Z,98449.53
2022-10-08T23:54:32.452Z,98441.22
2022-10-08T23:58:35.950Z,98464.19
